Time;durP1;ratioP1;P1;durP2;ratioP2;P2;SDS_P1;SDS_P2;PMS_P1;PMS_P2;Temp;Humidity;BMP_temperature;BMP_pressure;BME280_temperature;BME280_humidity;BME280_pressure;Samples;Min_cycle;Max_cycle;Signal;HPM_P1;HPM_P2
2023/10/17 00:02:50;;;;;;;6.03;3.92;;;;;;;7.20;100.00;101991.31;5055010;28;20127;-72
2023/10/17 00:05:15;;;;;;;7.22;4.18;;;;;;;7.19;100.00;101989.63;5054490;28;20132;-72
2023/10/17 00:07:45;;;;;;;9.05;4.10;;;;;;;7.16;100.00;101986.44;5064913;28;20104;-72
2023/10/17 00:10:15;;;;;;;6.13;3.80;;;;;;;7.19;100.00;101986.97;5061994;28;20024;-72
2023/10/17 00:12:44;;;;;;;10.00;4.60;;;;;;;7.19;100.00;101986.16;5054451;28;20036;-72
2023/10/17 00:15:28;;;;;;;10.07;3.75;;;;;;;7.17;100.00;101978.31;5072353;28;20039;-72
2023/10/17 00:18:00;;;;;;;8.20;4.10;;;;;;;7.20;100.00;101985.16;5072163;28;20116;-72
2023/10/17 00:20:32;;;;;;;7.80;4.28;;;;;;;7.19;100.00;101983.50;5060383;28;20111;-72
2023/10/17 00:22:58;;;;;;;9.80;4.07;;;;;;;7.19;100.00;101978.19;5040791;28;20395;-72
2023/10/17 00:25:25;;;;;;;6.70;3.75;;;;;;;7.17;100.00;101980.13;5069202;28;20506;-73
2023/10/17 00:27:51;;;;;;;11.75;4.30;;;;;;;7.20;100.00;101982.50;5053031;28;20028;-72
2023/10/17 00:30:17;;;;;;;9.85;3.80;;;;;;;7.10;100.00;101971.09;5052828;28;20480;-72
2023/10/17 00:32:43;;;;;;;8.50;4.00;;;;;;;7.17;100.00;101986.28;5060619;28;20396;-72
2023/10/17 00:35:18;;;;;;;11.70;5.25;;;;;;;7.16;100.00;101983.78;5068180;28;21016;-72
2023/10/17 00:37:57;;;;;;;9.60;4.57;;;;;;;7.13;100.00;101978.78;5063159;28;20037;-72
2023/10/17 00:40:35;;;;;;;6.95;3.97;;;;;;;7.12;100.00;101977.91;5066405;28;20060;-72
2023/10/17 00:43:04;;;;;;;8.00;4.82;;;;;;;7.12;100.00;101977.91;5054191;28;20075;-72
2023/10/17 00:45:32;;;;;;;9.18;4.13;;;;;;;7.08;100.00;101973.06;5058506;28;20388;-72
2023/10/17 00:47:59;;;;;;;17.52;5.07;;;;;;;7.09;100.00;101974.72;5036837;28;20039;-72
2023/10/17 00:50:26;;;;;;;10.90;5.78;;;;;;;7.06;100.00;101964.41;5063757;28;20060;-72
2023/10/17 00:52:51;;;;;;;7.85;4.53;;;;;;;7.07;100.00;101966.06;5063862;28;20025;-72
2023/10/17 00:55:18;;;;;;;9.77;4.63;;;;;;;7.05;100.00;101957.44;5066033;28;20046;-72
2023/10/17 00:57:45;;;;;;;8.13;5.00;;;;;;;7.04;100.00;101956.59;5060919;28;20488;-72
2023/10/17 01:00:23;;;;;;;9.65;4.70;;;;;;;7.03;100.00;101952.28;5068502;28;20056;-72
2023/10/17 01:02:51;;;;;;;10.20;4.60;;;;;;;7.01;100.00;101960.38;5058457;28;20988;-72
2023/10/17 01:05:18;;;;;;;9.60;4.63;;;;;;;6.95;100.00;101942.41;5071309;28;20117;-72
2023/10/17 01:07:44;;;;;;;7.45;4.57;;;;;;;7.00;100.00;101956.06;5056614;28;20411;-72
2023/10/17 01:10:13;;;;;;;10.52;6.63;;;;;;;6.99;100.00;101954.38;5059721;28;20036;-72
2023/10/17 01:12:54;;;;;;;9.68;5.93;;;;;;;6.98;100.00;101957.19;5065495;28;20972;-72
2023/10/17 01:15:28;;;;;;;11.13;4.85;;;;;;;6.98;100.00;101952.72;5065714;28;20201;-72
2023/10/17 01:18:06;;;;;;;10.50;4.95;;;;;;;6.98;100.00;101958.03;5053311;28;20040;-72
2023/10/17 01:20:32;;;;;;;11.88;5.15;;;;;;;6.97;100.00;101964.31;5066818;28;20023;-72
2023/10/17 01:23:00;;;;;;;9.30;4.82;;;;;;;6.98;100.00;101971.28;5064403;28;20392;-72
2023/10/17 01:25:26;;;;;;;12.73;6.40;;;;;;;6.97;100.00;101974.94;5052054;28;20036;-72
2023/10/17 01:27:53;;;;;;;7.20;4.43;;;;;;;7.00;100.00;101964.03;5052038;28;20511;-72
2023/10/17 01:30:18;;;;;;;9.90;4.40;;;;;;;7.00;100.00;101968.50;5052901;28;20989;-72
2023/10/17 01:32:44;;;;;;;11.60;5.30;;;;;;;7.00;100.00;101966.66;5033890;28;20052;-72
2023/10/17 01:35:10;;;;;;;12.52;5.05;;;;;;;6.98;100.00;101962.50;5066633;28;20017;-72
2023/10/17 01:37:36;;;;;;;8.20;4.38;;;;;;;6.98;100.00;101973.09;5069364;28;20032;-72
2023/10/17 01:40:22;;;;;;;9.00;4.25;;;;;;;6.95;100.00;101968.94;5033778;28;20032;-72
2023/10/17 01:42:47;;;;;;;8.98;5.05;;;;;;;6.91;100.00;101958.75;5053268;28;20028;-72
2023/10/17 01:45:14;;;;;;;11.05;5.25;;;;;;;6.84;100.00;101941.72;5068224;28;20116;-72
2023/10/17 01:47:39;;;;;;;9.43;4.47;;;;;;;6.87;100.00;101939.66;5057437;28;20132;-72
2023/10/17 01:50:08;;;;;;;9.55;4.63;;;;;;;6.88;100.00;101935.19;5059911;28;20115;-72
2023/10/17 01:52:35;;;;;;;8.15;4.82;;;;;;;6.88;100.00;101922.75;5056675;28;20064;-72
2023/10/17 01:55:01;;;;;;;12.57;5.40;;;;;;;6.84;100.00;101923.16;5046875;28;20502;-72
2023/10/17 01:57:27;;;;;;;8.90;4.53;;;;;;;6.89;100.00;101936.84;5070193;28;20041;-72
2023/10/17 01:59:53;;;;;;;10.32;4.97;;;;;;;6.89;100.00;101931.53;5055758;28;20032;-72
2023/10/17 02:02:23;;;;;;;9.27;5.28;;;;;;;6.87;100.00;101921.09;5070244;28;20033;-72
2023/10/17 02:04:50;;;;;;;10.80;4.43;;;;;;;6.84;100.00;101918.72;5046599;28;20056;-72
2023/10/17 02:07:16;;;;;;;9.32;4.90;;;;;;;6.83;100.00;101903.78;5060666;28;20039;-72
2023/10/17 02:12:09;;;;;;;7.78;4.65;;;;;;;6.80;100.00;101898.78;5054523;28;20377;-72
2023/10/17 02:14:37;;;;;;;11.13;5.55;;;;;;;6.84;100.00;101908.13;5050768;28;20036;-72
2023/10/17 02:17:03;;;;;;;10.55;5.07;;;;;;;6.85;100.00;101904.47;5060302;28;20036;-72
2023/10/17 02:19:32;;;;;;;12.20;5.47;;;;;;;6.85;100.00;101904.47;5058841;28;20077;-72
2023/10/17 02:21:58;;;;;;;10.88;4.70;;;;;;;6.85;100.00;101904.47;5035321;28;20043;-72
2023/10/17 02:24:25;;;;;;;7.57;4.38;;;;;;;6.85;100.00;101904.47;5050863;28;20036;-72
2023/10/17 02:27:12;;;;;;;7.95;4.00;;;;;;;6.84;100.00;101901.97;5050988;28;20029;-72
2023/10/17 02:29:39;;;;;;;10.40;4.68;;;;;;;6.78;100.00;101892.78;5053783;28;20037;-72
2023/10/17 02:32:13;;;;;;;10.50;4.68;;;;;;;6.86;100.00;101908.78;5050527;28;20139;-72
2023/10/17 02:34:46;;;;;;;11.00;5.28;;;;;;;6.85;100.00;101904.47;5050590;28;20031;-72
2023/10/17 02:37:16;;;;;;;10.25;5.78;;;;;;;6.86;100.00;101907.97;5050719;28;20063;-72
2023/10/17 02:39:41;;;;;;;18.10;7.95;;;;;;;6.88;100.00;101917.44;5058456;28;20395;-72
2023/10/17 02:42:07;;;;;;;10.43;5.68;;;;;;;6.84;100.00;101899.31;5062821;28;20025;-72
2023/10/17 02:44:32;;;;;;;11.32;6.00;;;;;;;6.81;100.00;101908.38;5056742;28;20433;-72
2023/10/17 02:46:58;;;;;;;10.07;5.20;;;;;;;6.76;100.00;101903.53;5049472;28;20032;-72
2023/10/17 02:49:26;;;;;;;10.65;5.35;;;;;;;6.74;100.00;101899.38;5060804;28;20433;-72
2023/10/17 02:51:54;;;;;;;11.20;6.57;;;;;;;6.68;100.00;101903.44;5063803;28;20035;-72
2023/10/17 02:54:20;;;;;;;11.02;5.35;;;;;;;6.70;100.00;101903.28;5044704;28;20060;-72
2023/10/17 02:56:53;;;;;;;11.25;5.57;;;;;;;6.71;100.00;101900.50;5057966;28;20090;-72
2023/10/17 02:59:21;;;;;;;12.88;6.10;;;;;;;6.69;100.00;101898.97;5050242;28;20082;-72
2023/10/17 03:01:52;;;;;;;11.73;5.70;;;;;;;6.70;100.00;101897.97;5059521;28;20042;-72
2023/10/17 03:04:18;;;;;;;12.50;5.50;;;;;;;6.67;100.00;101893.81;5050033;28;20049;-72
2023/10/17 03:06:44;;;;;;;13.80;6.38;;;;;;;6.66;100.00;101891.31;5054265;28;20033;-72
2023/10/17 03:09:16;;;;;;;14.25;6.93;;;;;;;6.65;100.00;101898.41;5060188;28;20029;-72
2023/10/17 03:11:50;;;;;;;14.45;6.80;;;;;;;6.64;100.00;101898.56;5059309;28;20108;-72
2023/10/17 03:14:22;;;;;;;14.38;6.65;;;;;;;6.62;100.00;101895.22;5056980;28;20029;-72
2023/10/17 03:16:53;;;;;;;13.77;6.88;;;;;;;6.62;100.00;101896.06;5064390;28;20103;-72
2023/10/17 03:19:26;;;;;;;13.30;6.25;;;;;;;6.63;100.00;101900.38;5056848;28;20039;-72
2023/10/17 03:21:59;;;;;;;12.57;6.63;;;;;;;6.64;100.00;101898.56;5060846;28;20656;-72
2023/10/17 03:24:38;;;;;;;16.00;6.75;;;;;;;6.65;100.00;101900.22;5049328;28;20029;-72
2023/10/17 03:27:08;;;;;;;14.80;7.35;;;;;;;6.67;100.00;101898.28;5052950;28;20479;-72
2023/10/17 03:29:41;;;;;;;13.32;6.25;;;;;;;6.67;100.00;101909.72;5053311;28;20029;-72
2023/10/17 03:32:11;;;;;;;17.35;7.15;;;;;;;6.66;100.00;101896.63;5066340;28;20032;-72
2023/10/17 03:34:37;;;;;;;13.82;6.70;;;;;;;6.66;100.00;101901.91;5056511;28;20031;-72
2023/10/17 03:39:54;;;;;;;17.42;7.70;;;;;;;6.65;100.00;101906.34;5060951;28;20192;-72
2023/10/17 03:43:00;;;;;;;15.55;7.13;;;;;;;6.64;100.00;101902.03;5055910;28;20097;-72
2023/10/17 03:45:26;;;;;;;17.27;6.68;;;;;;;6.65;100.00;101909.00;5065458;28;20099;-72
2023/10/17 03:47:53;;;;;;;16.20;7.70;;;;;;;6.66;100.00;101902.75;5062258;28;20392;-72
2023/10/17 03:53:15;;;;;;;18.33;7.68;;;;;;;6.64;100.00;101907.34;5032183;28;20032;-72
2023/10/17 03:55:48;;;;;;;13.43;6.60;;;;;;;6.69;100.00;101909.56;5062651;28;20392;-72
2023/10/17 03:59:16;;;;;;;19.92;8.02;;;;;;;6.64;100.00;101907.34;5068612;28;20039;-73
2023/10/17 04:01:08;;;;;;;14.80;8.15;;;;;;;6.69;100.00;101897.16;5060964;28;20032;-73
2023/10/17 04:03:34;;;;;;;14.63;7.20;;;;;;;6.70;100.00;101901.47;5068382;28;20017;-72
2023/10/17 04:08:48;;;;;;;16.83;8.60;;;;;;;6.64;100.00;101901.22;5049709;28;20033;-72
2023/10/17 04:13:50;;;;;;;18.35;8.68;;;;;;;6.63;100.00;101894.22;5068731;28;20472;-72
2023/10/17 04:16:27;;;;;;;21.10;8.98;;;;;;;6.65;100.00;101901.06;5061219;28;20107;-72
2023/10/17 04:18:59;;;;;;;17.05;8.32;;;;;;;6.64;100.00;101895.91;5065307;28;20034;-72
2023/10/17 04:21:30;;;;;;;17.13;7.88;;;;;;;6.68;100.00;101907.88;5056138;28;20024;-72
2023/10/17 04:23:59;;;;;;;20.88;9.80;;;;;;;6.68;100.00;101907.88;5054480;28;20873;-72
2023/10/17 04:26:28;;;;;;;19.30;9.70;;;;;;;6.68;100.00;101902.59;5068456;28;20029;-72
2023/10/17 04:29:00;;;;;;;19.85;9.55;;;;;;;6.67;100.00;101912.34;5068358;28;20452;-72
2023/10/17 04:31:28;;;;;;;18.02;9.00;;;;;;;6.67;100.00;101907.06;5067070;28;20132;-72
2023/10/17 04:34:06;;;;;;;19.02;10.05;;;;;;;6.63;100.00;101904.81;5063352;28;20099;-72
2023/10/17 04:36:38;;;;;;;21.30;10.18;;;;;;;6.61;100.00;101904.16;5045096;28;20024;-72
2023/10/17 04:42:06;;;;;;;18.05;10.15;;;;;;;6.59;100.00;101912.25;5022610;28;20045;-72
2023/10/17 04:44:34;;;;;;;18.58;8.93;;;;;;;6.57;100.00;101922.16;5058249;28;20048;-72
2023/10/17 04:49:25;;;;;;;24.58;9.13;;;;;;;6.55;100.00;101922.31;5068017;28;20040;-72
2023/10/17 04:52:06;;;;;;;19.85;10.32;;;;;;;6.55;100.00;101917.00;5053828;28;20025;-72
2023/10/17 04:57:08;;;;;;;19.23;10.63;;;;;;;6.54;100.00;101902.06;5053075;28;20122;-72
2023/10/17 05:07:58;;;;;;;23.50;11.18;;;;;;;6.61;100.00;101902.34;5067606;28;20048;-72
2023/10/17 06:18:49;;;;;;;18.30;10.52;;;;;;;6.50;100.00;101881.31;5061575;28;20068;-72
2023/10/17 06:34:17;;;;;;;18.88;9.93;;;;;;;6.50;100.00;101897.22;5059323;28;20541;-72
2023/10/17 06:36:44;;;;;;;17.73;9.25;;;;;;;6.51;100.00;101896.22;5056640;28;20115;-72
2023/10/17 06:39:19;;;;;;;18.50;9.98;;;;;;;6.53;100.00;101905.72;5039041;28;20029;-72
2023/10/17 06:41:49;;;;;;;20.48;10.95;;;;;;;6.52;100.00;101914.66;5067110;28;20021;-72
2023/10/17 06:44:23;;;;;;;18.33;8.45;;;;;;;6.53;100.00;101903.06;5064142;28;20426;-72
2023/10/17 06:46:55;;;;;;;18.45;8.93;;;;;;;6.58;100.00;101915.88;5064367;28;20037;-72
2023/10/17 06:54:50;;;;;;;20.65;9.93;;;;;;;6.55;100.00;101894.97;5069239;28;20032;-72
2023/10/17 06:57:33;;;;;;;19.98;9.52;;;;;;;6.61;100.00;101907.66;5069138;28;20546;-72
2023/10/17 07:00:15;;;;;;;21.73;10.15;;;;;;;6.63;100.00;101913.63;5063984;28;20031;-72
2023/10/17 07:02:48;;;;;;;19.90;10.10;;;;;;;6.63;100.00;101900.38;5057150;28;20021;-72
2023/10/17 07:05:14;;;;;;;22.25;10.80;;;;;;;6.62;100.00;101908.47;5051184;28;20049;-73
2023/10/17 07:07:41;;;;;;;20.25;10.85;;;;;;;6.66;100.00;101909.88;5050006;28;20115;-73
2023/10/17 07:10:16;;;;;;;21.05;9.63;;;;;;;6.64;100.00;101910.00;5049917;28;20068;-73
2023/10/17 07:12:41;;;;;;;19.77;9.93;;;;;;;6.70;100.00;101905.94;5068989;28;20033;-74
2023/10/17 07:15:18;;;;;;;19.10;10.13;;;;;;;6.71;100.00;101903.16;5052820;28;20076;-73
2023/10/17 07:17:49;;;;;;;19.30;9.65;;;;;;;6.72;100.00;101902.16;5062850;28;20089;-73
2023/10/17 07:20:30;;;;;;;22.50;11.90;;;;;;;6.74;100.00;101902.03;5046658;28;20562;-73
2023/10/17 07:22:57;;;;;;;20.33;10.23;;;;;;;6.77;100.00;101905.19;5055675;28;20481;-73
2023/10/17 07:25:23;;;;;;;21.48;10.27;;;;;;;6.77;100.00;101901.72;5057743;28;20052;-73
2023/10/17 07:27:51;;;;;;;20.33;11.10;;;;;;;6.81;100.00;101913.69;5054595;28;20032;-73
2023/10/17 07:30:27;;;;;;;26.65;12.02;;;;;;;6.78;100.00;101909.50;5052249;28;20431;-73
2023/10/17 07:32:54;;;;;;;23.33;10.93;;;;;;;6.78;100.00;101909.50;5053564;28;20029;-71
2023/10/17 07:35:30;;;;;;;20.38;10.93;;;;;;;6.73;100.00;101902.97;5039894;28;20035;-72
2023/10/17 07:37:56;;;;;;;22.00;11.38;;;;;;;6.75;100.00;101911.63;5065216;28;20033;-71
2023/10/17 07:43:07;;;;;;;20.42;9.93;;;;;;;6.72;100.00;101903.97;5066644;28;20032;-70
2023/10/17 07:45:42;;;;;;;20.85;10.45;;;;;;;6.72;100.00;101906.63;5066520;28;20070;-73
2023/10/17 07:48:21;;;;;;;23.13;11.35;;;;;;;6.67;100.00;101904.41;5030489;28;20542;-74
2023/10/17 07:50:50;;;;;;;20.40;11.25;;;;;;;6.64;100.00;101901.22;5047231;28;20029;-75
2023/10/17 07:53:19;;;;;;;23.17;11.70;;;;;;;6.65;100.00;101909.00;5058069;28;20032;-70
2023/10/17 07:55:48;;;;;;;20.85;10.15;;;;;;;6.61;100.00;101901.50;5055551;28;20032;-69
2023/10/17 07:58:17;;;;;;;23.90;14.00;;;;;;;6.63;100.00;101908.34;5063970;28;20570;-73
2023/10/17 08:00:43;;;;;;;21.42;11.48;;;;;;;6.60;100.00;101911.25;5059361;28;20053;-73
2023/10/17 08:03:18;;;;;;;23.02;12.73;;;;;;;6.64;100.00;101898.56;5046991;28;20147;-75
2023/10/17 08:06:08;;;;;;;22.75;11.02;;;;;;;6.66;100.00;101902.75;5052149;28;20134;-74
2023/10/17 08:08:45;;;;;;;22.30;11.32;;;;;;;6.75;100.00;101898.38;5057741;28;20465;-72
2023/10/17 08:11:26;;;;;;;20.27;11.25;;;;;;;6.85;100.00;101896.53;5062517;28;20182;-73
2023/10/17 08:13:55;;;;;;;21.65;11.38;;;;;;;6.97;100.00;101889.22;5042530;28;20035;-74
2023/10/17 08:16:24;;;;;;;25.45;13.95;;;;;;;7.07;100.00;101889.16;5059464;28;20490;-75
2023/10/17 08:18:55;;;;;;;23.02;11.68;;;;;;;7.17;100.00;101903.19;5067663;28;20032;-71
2023/10/17 08:23:46;;;;;;;21.17;11.13;;;;;;;7.35;100.00;101901.41;5066771;28;20476;-74
2023/10/17 08:26:13;;;;;;;24.88;12.20;;;;;;;7.45;100.00;101896.88;5042969;28;20033;-75
2023/10/17 08:33:47;;;;;;;22.25;11.00;;;;;;;7.76;100.00;101895.69;5050932;28;20338;-74
2023/10/17 08:36:13;;;;;;;24.05;12.98;;;;;;;7.86;100.00;101894.63;5054107;28;20029;-72
2023/10/17 08:38:40;;;;;;;22.77;12.15;;;;;;;7.98;100.00;101892.53;5069464;28;20036;-74
2023/10/17 08:41:08;;;;;;;24.83;11.25;;;;;;;8.10;100.00;101888.66;5060659;28;20056;-71
2023/10/17 08:43:38;;;;;;;24.88;11.70;;;;;;;8.20;100.00;101885.91;5063377;28;20035;-69
2023/10/17 08:46:09;;;;;;;25.27;11.75;;;;;;;8.34;100.00;101900.47;5046416;28;20036;-71
2023/10/17 08:48:36;;;;;;;19.92;10.27;;;;;;;8.44;100.00;101897.75;5053500;28;20476;-68
2023/10/17 08:51:06;;;;;;;20.52;9.73;;;;;;;8.52;100.00;101892.47;5069612;28;20545;-68
2023/10/17 08:53:32;;;;;;;23.27;10.90;;;;;;;8.61;100.00;101898.66;5066461;28;20043;-71
2023/10/17 08:55:59;;;;;;;21.85;9.68;;;;;;;8.69;100.00;101893.38;5044090;28;20029;-74
2023/10/17 08:58:32;;;;;;;19.20;10.05;;;;;;;8.74;100.00;101899.88;5053121;28;20703;-74
2023/10/17 09:01:10;;;;;;;16.55;8.65;;;;;;;8.80;100.00;101886.94;5050438;28;20031;-75
2023/10/17 09:03:40;;;;;;;15.13;7.32;;;;;;;8.92;100.00;101896.31;5032154;28;20040;-75
2023/10/17 09:06:28;;;;;;;20.80;9.40;;;;;;;8.99;100.00;101892.84;5051449;28;20048;-75
2023/10/17 09:08:55;;;;;;;18.08;8.70;;;;;;;9.09;100.00;101895.41;5061940;28;20048;-75
2023/10/17 09:11:30;;;;;;;16.42;8.27;;;;;;;9.17;100.00;101892.75;5058910;28;21050;-71
2023/10/17 09:17:00;;;;;;;15.05;7.20;;;;;;;9.40;100.00;101895.63;5058757;28;20098;-74
2023/10/17 09:19:25;;;;;;;15.25;7.68;;;;;;;9.43;100.00;101895.31;5051595;28;20029;-72
2023/10/17 09:21:51;;;;;;;14.35;7.03;;;;;;;9.46;100.00;101888.84;5053106;28;20098;-72
2023/10/17 09:24:32;;;;;;;14.07;7.18;;;;;;;9.52;100.00;101901.47;5050914;28;20041;-72
2023/10/17 09:26:58;;;;;;;15.55;6.85;;;;;;;9.56;100.00;101916.16;5051761;28;20094;-72
2023/10/17 09:29:27;;;;;;;15.77;7.70;;;;;;;9.60;100.00;101904.16;5034348;28;20024;-72
2023/10/17 09:31:53;;;;;;;15.98;7.30;;;;;;;9.68;100.00;101907.84;5033323;28;20060;-72
2023/10/17 09:34:23;;;;;;;15.68;7.85;;;;;;;9.73;100.00;101918.84;5051234;28;20063;-72
2023/10/17 09:36:49;;;;;;;17.35;7.70;;;;;;;9.77;100.00;101906.84;5051388;28;20379;-72
2023/10/17 09:39:24;;;;;;;14.93;7.35;;;;;;;9.83;100.00;101908.84;5033969;28;20029;-72
2023/10/17 09:41:50;;;;;;;16.85;7.38;;;;;;;9.90;100.00;101898.34;5070626;28;20483;-72
2023/10/17 09:44:15;;;;;;;15.68;6.53;;;;;;;9.96;100.00;101905.69;5070239;28;20090;-72
2023/10/17 09:46:46;;;;;;;15.68;6.72;;;;;;;10.02;100.00;101907.69;5070289;28;20024;-72
2023/10/17 09:49:17;;;;;;;16.42;7.13;;;;;;;10.08;100.00;101917.66;5070240;28;20535;-72
2023/10/17 09:51:42;;;;;;;12.23;6.30;;;;;;;10.18;100.00;101917.50;5070230;28;20029;-72
2023/10/17 09:54:11;;;;;;;14.60;6.05;;;;;;;10.23;100.00;101917.84;5070555;28;20035;-72
2023/10/17 09:56:40;;;;;;;14.63;7.60;;;;;;;10.26;100.00;101915.66;5066020;28;20068;-72
2023/10/17 09:59:11;;;;;;;8.85;4.68;;;;;;;10.36;100.00;101914.69;5050962;28;20028;-72
2023/10/17 10:01:39;;;;;;;11.80;5.93;;;;;;;10.40;100.00;101922.19;5051224;28;20020;-72
2023/10/17 10:04:07;;;;;;;10.82;5.63;;;;;;;10.41;100.00;101915.84;5050860;28;20443;-72
2023/10/17 10:06:36;;;;;;;13.23;5.82;;;;;;;10.52;100.00;101934.16;5051411;28;20056;-71
2023/10/17 10:09:05;;;;;;;11.90;6.03;;;;;;;10.53;100.00;101916.31;5053439;28;20502;-74
2023/10/17 10:11:52;;;;;;;13.02;5.50;;;;;;;10.52;100.00;101910.16;5052099;28;20536;-75
2023/10/17 10:14:23;;;;;;;13.20;5.40;;;;;;;10.57;100.00;101895.47;5070146;28;21047;-74
2023/10/17 10:17:06;;;;;;;14.60;4.80;;;;;;;10.62;100.00;101901.97;5062896;28;20396;-74
2023/10/17 10:19:40;;;;;;;12.13;5.43;;;;;;;10.68;100.00;101905.78;5059269;28;20496;-74
2023/10/17 10:22:06;;;;;;;9.80;4.90;;;;;;;10.63;100.00;101900.13;5067981;28;20075;-73
2023/10/17 10:24:33;;;;;;;12.52;4.95;;;;;;;10.55;100.00;101895.63;5039673;28;20020;-74
2023/10/17 10:27:08;;;;;;;10.10;5.70;;;;;;;10.66;100.00;101910.44;5043953;28;20066;-74
2023/10/17 10:29:34;;;;;;;10.40;5.03;;;;;;;10.70;100.00;101903.78;5062451;28;20107;-74
2023/10/17 10:32:05;;;;;;;10.27;5.22;;;;;;;10.75;100.00;101896.09;5069341;28;20120;-74
2023/10/17 10:34:32;;;;;;;;;;;;;;;10.85;100.00;101895.91;5045418;28;20031;-73
2023/10/17 10:36:57;;;;;;;9.07;5.13;;;;;;;10.84;100.00;101883.53;5052621;28;20386;-73
2023/10/17 10:39:23;;;;;;;11.88;5.82;;;;;;;10.92;100.00;101894.19;5064402;28;20033;-74
2023/10/17 10:42:02;;;;;;;9.80;4.40;;;;;;;10.97;100.00;101895.31;5050352;28;20094;-74
2023/10/17 10:44:28;;;;;;;8.63;5.10;;;;;;;11.03;100.00;101887.63;5050499;28;20051;-74
2023/10/17 10:46:54;;;;;;;11.88;6.05;;;;;;;11.08;100.00;101888.78;5050256;28;20033;-74
2023/10/17 10:49:27;;;;;;;13.07;6.10;;;;;;;11.14;100.00;101884.59;5032351;28;20029;-73
2023/10/17 10:51:53;;;;;;;11.15;5.00;;;;;;;11.12;100.00;101878.59;5061778;28;20041;-73
2023/10/17 10:54:19;;;;;;;8.15;4.85;;;;;;;11.10;99.45;101870.75;5069098;28;20034;-74
2023/10/17 10:56:51;;;;;;;12.07;4.90;;;;;;;11.11;100.00;101860.91;5052310;28;20544;-74
2023/10/17 10:59:23;;;;;;;11.75;5.10;;;;;;;11.06;98.71;101858.75;5037991;28;20041;-73
2023/10/17 11:01:49;;;;;;;12.98;6.50;;;;;;;11.09;100.00;101854.91;5049588;28;20580;-74
2023/10/17 11:04:14;;;;;;;9.50;5.15;;;;;;;11.17;100.00;101855.69;5058394;28;20067;-74
2023/10/17 11:06:41;;;;;;;11.32;5.60;;;;;;;11.18;99.57;101846.66;5067249;28;20052;-74
2023/10/17 11:09:09;;;;;;;9.82;5.00;;;;;;;11.26;99.63;101847.63;5033834;28;20032;-73
2023/10/17 11:11:45;;;;;;;12.85;5.38;;;;;;;11.30;99.45;101847.09;5049841;28;20039;-74
2023/10/17 11:14:17;;;;;;;7.50;5.00;;;;;;;11.32;99.23;101842.44;5067868;28;20111;-74
2023/10/17 11:16:43;;;;;;;12.82;5.00;;;;;;;11.34;98.40;101837.75;5068555;28;20062;-74
2023/10/17 11:19:22;;;;;;;8.38;4.88;;;;;;;11.34;99.84;101843.09;5068075;28;20032;-73
2023/10/17 11:21:57;;;;;;;7.72;4.13;;;;;;;11.38;99.25;101832.88;5037175;28;20123;-74
2023/10/17 11:24:25;;;;;;;9.95;4.78;;;;;;;11.47;100.00;101834.47;5069007;28;20024;-74
2023/10/17 11:26:52;;;;;;;8.15;4.38;;;;;;;11.59;98.07;101834.88;5068873;28;20043;-74
2023/10/17 11:29:18;;;;;;;7.43;3.85;;;;;;;11.65;96.83;101823.47;5060592;28;20055;-74
2023/10/17 11:31:44;;;;;;;8.60;4.38;;;;;;;11.61;92.78;101816.84;5049688;28;20111;-74
2023/10/17 11:34:16;;;;;;;8.60;3.67;;;;;;;11.59;93.14;101816.19;5040927;28;20140;-72
2023/10/17 11:37:02;;;;;;;7.97;4.03;;;;;;;11.66;96.17;101811.78;5050715;28;20080;-73
2023/10/17 11:39:38;;;;;;;8.32;4.07;;;;;;;11.68;95.32;101811.59;5023745;28;20040;-72
2023/10/17 11:42:03;;;;;;;5.85;3.13;;;;;;;11.74;91.47;101802.88;5060788;28;20031;-72
2023/10/17 11:44:31;;;;;;;6.30;3.33;;;;;;;11.81;93.33;101807.28;5056689;28;20036;-74
2023/10/17 11:47:03;;;;;;;6.40;3.60;;;;;;;11.87;91.73;101811.13;5064477;28;20044;-76
2023/10/17 11:49:49;;;;;;;;;;;;;;;11.93;94.28;101799.69;5062760;28;20028;-75
2023/10/17 11:52:15;;;;;;;8.00;3.60;;;;;;;11.87;89.10;101805.78;5054864;28;19958;-74
2023/10/17 11:55:01;;;;;;;6.47;3.45;;;;;;;11.97;91.19;101814.38;5070037;28;20040;-74
2023/10/17 11:57:28;;;;;;;6.32;3.28;;;;;;;12.05;90.70;101802.75;5059063;28;20052;-74
2023/10/17 12:00:06;;;;;;;11.18;4.35;;;;;;;12.07;89.23;101800.72;5069566;28;20143;-73
2023/10/17 12:02:33;;;;;;;9.50;3.47;;;;;;;12.03;89.04;101805.63;5059557;28;20429;-74
2023/10/17 12:05:01;;;;;;;4.80;3.08;;;;;;;11.99;86.85;101790.94;5059676;28;20087;-74
2023/10/17 12:07:29;;;;;;;5.03;3.03;;;;;;;12.02;86.57;101809.28;5070072;28;20033;-75
2023/10/17 12:10:02;;;;;;;5.43;2.83;;;;;;;12.02;84.33;101797.75;5056054;28;20120;-75
2023/10/17 12:12:28;;;;;;;4.10;2.53;;;;;;;12.07;87.28;101793.53;5044064;28;20103;-75
2023/10/17 12:14:54;;;;;;;6.28;2.90;;;;;;;12.13;84.54;101805.34;5066408;28;20032;-75
2023/10/17 12:17:20;;;;;;;3.08;2.40;;;;;;;12.19;81.31;101807.28;5067711;28;20057;-75
2023/10/17 12:19:46;;;;;;;3.17;2.10;;;;;;;12.26;84.51;101799.34;5073834;28;20047;-75
2023/10/17 12:22:12;;;;;;;4.25;2.42;;;;;;;12.26;81.83;101788.63;5066309;28;20078;-75
2023/10/17 12:24:38;;;;;;;4.25;2.15;;;;;;;12.19;82.68;101782.41;5075265;28;20390;-75
2023/10/17 12:27:06;;;;;;;6.88;2.65;;;;;;;12.17;80.15;101781.75;5048455;28;20479;-75
2023/10/17 12:29:34;;;;;;;4.43;2.05;;;;;;;12.16;81.33;101772.06;5059231;28;20028;-76
2023/10/17 12:32:01;;;;;;;4.45;2.53;;;;;;;12.13;79.23;101767.06;5057039;28;20091;-75
2023/10/17 12:34:27;;;;;;;3.83;2.05;;;;;;;12.01;82.00;101735.44;5054958;28;20232;-76
2023/10/17 12:36:53;;;;;;;4.90;2.70;;;;;;;12.18;85.65;101744.13;5055426;28;20036;-75
2023/10/17 12:39:19;;;;;;;5.20;2.25;;;;;;;12.22;82.92;101731.19;5059878;28;20025;-76
2023/10/17 12:41:49;;;;;;;4.07;2.25;;;;;;;12.27;82.49;101739.50;5072823;28;20116;-76
2023/10/17 12:44:18;;;;;;;4.00;2.58;;;;;;;12.25;83.49;101728.16;5058195;28;20107;-76
2023/10/17 12:46:44;;;;;;;7.45;4.35;;;;;;;12.29;81.76;101718.75;5060692;28;20090;-76
2023/10/17 12:49:12;;;;;;;3.58;2.47;;;;;;;12.26;80.16;101706.59;5055799;28;20036;-76
2023/10/17 12:51:41;;;;;;;5.25;2.38;;;;;;;12.26;79.71;101700.38;5055304;28;20474;-76
2023/10/17 12:54:07;;;;;;;4.15;2.30;;;;;;;12.26;79.47;101701.22;5073268;28;20035;-76
2023/10/17 12:56:36;;;;;;;6.63;2.90;;;;;;;12.27;81.90;101688.69;5060552;28;20028;-75
2023/10/17 12:59:03;;;;;;;3.85;2.28;;;;;;;12.30;80.12;101679.44;5056151;28;20025;-76
2023/10/17 13:01:29;;;;;;;4.80;2.47;;;;;;;12.31;81.79;101681.91;5062936;28;20029;-75
2023/10/17 13:03:57;;;;;;;5.60;3.05;;;;;;;12.33;79.81;101692.44;5052215;28;20593;-76
2023/10/17 13:06:25;;;;;;;5.40;2.50;;;;;;;12.31;80.94;101684.59;5049328;28;20096;-76
2023/10/17 13:08:56;;;;;;;4.47;2.65;;;;;;;12.32;78.91;101685.44;5071450;28;20391;-76
2023/10/17 13:11:22;;;;;;;6.90;3.00;;;;;;;12.38;81.85;101684.69;5071369;28;20024;-75
2023/10/17 13:13:47;;;;;;;4.32;2.50;;;;;;;12.42;82.73;101683.31;5068149;28;20336;-75
2023/10/17 13:16:13;;;;;;;3.92;2.80;;;;;;;12.46;82.80;101698.78;5055666;28;20033;-75
2023/10/17 13:18:40;;;;;;;6.63;3.40;;;;;;;12.44;83.50;101683.94;5057868;28;20040;-75
2023/10/17 13:21:12;;;;;;;6.18;3.45;;;;;;;12.45;82.38;101693.63;5067329;28;20528;-74
2023/10/17 13:23:44;;;;;;;6.47;3.38;;;;;;;12.40;81.16;101688.00;5060068;28;20029;-75
2023/10/17 13:26:11;;;;;;;;;;;;;;;12.44;84.20;101674.06;5052658;28;20028;-75
2023/10/17 13:28:37;;;;;;;7.05;3.55;;;;;;;12.41;83.10;101677.09;5054093;28;19917;-76
2023/10/17 13:31:14;;;;;;;6.20;2.95;;;;;;;12.39;84.23;101667.59;5067633;28;20105;-75
2023/10/17 13:33:45;;;;;;;6.55;3.42;;;;;;;12.35;80.31;101677.03;5056576;28;20476;-76
2023/10/17 13:36:11;;;;;;;4.72;3.60;;;;;;;12.32;80.47;101680.09;5051712;28;20025;-75
2023/10/17 13:38:40;;;;;;;5.72;3.63;;;;;;;12.24;81.92;101670.34;5054342;28;20038;-75
2023/10/17 13:41:06;;;;;;;10.18;3.97;;;;;;;12.20;82.56;101677.88;5052786;28;20021;-75
2023/10/17 13:43:33;;;;;;;4.68;3.13;;;;;;;12.12;85.29;101664.63;5051236;28;20028;-75